sensor_id;sensor_type;location;lat;lon;timestamp;P1;durP1;ratioP1;P2;durP2;ratioP2
71104;SDS011;58760;48.716;8.962;2022-08-21T00:01:16;5.53;;;2.10;;
71104;SDS011;58760;48.716;8.962;2022-08-21T00:03:44;7.05;;;1.80;;
71104;SDS011;58760;48.716;8.962;2022-08-21T00:06:09;5.20;;;1.90;;
71104;SDS011;58760;48.716;8.962;2022-08-21T00:08:35;6.90;;;2.03;;
71104;SDS011;58760;48.716;8.962;2022-08-21T00:11:01;5.45;;;2.00;;
71104;SDS011;58760;48.716;8.962;2022-08-21T00:13:27;4.68;;;1.80;;
71104;SDS011;58760;48.716;8.962;2022-08-21T00:15:52;4.18;;;1.60;;
71104;SDS011;58760;48.716;8.962;2022-08-21T00:18:18;3.65;;;1.75;;
71104;SDS011;58760;48.716;8.962;2022-08-21T00:23:10;5.47;;;1.77;;
71104;SDS011;58760;48.716;8.962;2022-08-21T00:25:36;5.40;;;1.80;;
71104;SDS011;58760;48.716;8.962;2022-08-21T00:28:02;4.95;;;1.80;;
71104;SDS011;58760;48.716;8.962;2022-08-21T00:30:28;10.00;;;2.35;;
71104;SDS011;58760;48.716;8.962;2022-08-21T00:32:55;6.05;;;1.40;;
71104;SDS011;58760;48.716;8.962;2022-08-21T00:35:24;6.30;;;1.90;;
71104;SDS011;58760;48.716;8.962;2022-08-21T00:37:53;4.30;;;1.65;;
71104;SDS011;58760;48.716;8.962;2022-08-21T00:40:29;6.03;;;1.90;;
71104;SDS011;58760;48.716;8.962;2022-08-21T00:45:33;6.00;;;1.75;;
71104;SDS011;58760;48.716;8.962;2022-08-21T00:47:59;3.38;;;1.50;;
71104;SDS011;58760;48.716;8.962;2022-08-21T00:50:26;5.10;;;1.95;;
71104;SDS011;58760;48.716;8.962;2022-08-21T00:52:56;5.30;;;1.90;;
71104;SDS011;58760;48.716;8.962;2022-08-21T00:55:22;4.90;;;1.70;;
71104;SDS011;58760;48.716;8.962;2022-08-21T00:57:53;5.03;;;1.63;;
71104;SDS011;58760;48.716;8.962;2022-08-21T01:00:23;5.45;;;1.98;;
71104;SDS011;58760;48.716;8.962;2022-08-21T01:02:53;5.22;;;2.08;;
71104;SDS011;58760;48.716;8.962;2022-08-21T01:05:20;6.88;;;2.17;;
71104;SDS011;58760;48.716;8.962;2022-08-21T01:07:45;5.38;;;2.10;;
71104;SDS011;58760;48.716;8.962;2022-08-21T01:10:11;5.25;;;1.80;;
71104;SDS011;58760;48.716;8.962;2022-08-21T01:12:37;7.20;;;2.10;;
71104;SDS011;58760;48.716;8.962;2022-08-21T01:15:05;4.25;;;1.90;;
71104;SDS011;58760;48.716;8.962;2022-08-21T01:17:31;5.63;;;1.90;;
71104;SDS011;58760;48.716;8.962;2022-08-21T01:19:58;5.60;;;1.92;;
71104;SDS011;58760;48.716;8.962;2022-08-21T01:22:24;4.90;;;2.10;;
71104;SDS011;58760;48.716;8.962;2022-08-21T01:24:49;3.40;;;1.52;;
71104;SDS011;58760;48.716;8.962;2022-08-21T01:27:15;5.07;;;1.65;;
71104;SDS011;58760;48.716;8.962;2022-08-21T01:29:47;5.72;;;1.90;;
71104;SDS011;58760;48.716;8.962;2022-08-21T01:32:20;5.13;;;1.98;;
71104;SDS011;58760;48.716;8.962;2022-08-21T01:34:46;4.63;;;2.00;;
71104;SDS011;58760;48.716;8.962;2022-08-21T01:37:13;5.75;;;1.88;;
71104;SDS011;58760;48.716;8.962;2022-08-21T01:39:39;5.05;;;2.10;;
71104;SDS011;58760;48.716;8.962;2022-08-21T01:42:05;4.32;;;1.80;;
71104;SDS011;58760;48.716;8.962;2022-08-21T01:44:31;4.20;;;1.70;;
71104;SDS011;58760;48.716;8.962;2022-08-21T01:46:58;6.20;;;2.00;;
71104;SDS011;58760;48.716;8.962;2022-08-21T01:49:25;4.05;;;1.58;;
71104;SDS011;58760;48.716;8.962;2022-08-21T01:51:51;6.03;;;1.92;;
71104;SDS011;58760;48.716;8.962;2022-08-21T01:54:16;6.05;;;1.80;;
71104;SDS011;58760;48.716;8.962;2022-08-21T01:56:43;5.10;;;1.65;;
71104;SDS011;58760;48.716;8.962;2022-08-21T01:59:11;4.65;;;1.90;;
71104;SDS011;58760;48.716;8.962;2022-08-21T02:01:37;4.15;;;1.80;;
71104;SDS011;58760;48.716;8.962;2022-08-21T02:04:04;4.30;;;1.75;;
71104;SDS011;58760;48.716;8.962;2022-08-21T02:06:31;6.05;;;2.10;;
71104;SDS011;58760;48.716;8.962;2022-08-21T02:08:56;5.00;;;1.98;;
71104;SDS011;58760;48.716;8.962;2022-08-21T02:11:22;5.65;;;1.95;;
71104;SDS011;58760;48.716;8.962;2022-08-21T02:13:47;5.07;;;1.90;;
71104;SDS011;58760;48.716;8.962;2022-08-21T02:16:13;6.07;;;1.85;;
71104;SDS011;58760;48.716;8.962;2022-08-21T02:18:38;8.50;;;2.00;;
71104;SDS011;58760;48.716;8.962;2022-08-21T02:21:04;4.57;;;1.75;;
71104;SDS011;58760;48.716;8.962;2022-08-21T02:23:30;7.32;;;2.08;;
71104;SDS011;58760;48.716;8.962;2022-08-21T02:25:57;5.18;;;2.00;;
71104;SDS011;58760;48.716;8.962;2022-08-21T02:28:23;5.40;;;2.28;;
71104;SDS011;58760;48.716;8.962;2022-08-21T02:30:49;5.18;;;2.05;;
71104;SDS011;58760;48.716;8.962;2022-08-21T02:33:16;6.05;;;1.90;;
71104;SDS011;58760;48.716;8.962;2022-08-21T02:35:42;5.78;;;1.90;;
71104;SDS011;58760;48.716;8.962;2022-08-21T02:38:10;4.18;;;1.83;;
71104;SDS011;58760;48.716;8.962;2022-08-21T02:40:39;7.22;;;2.30;;
71104;SDS011;58760;48.716;8.962;2022-08-21T02:43:07;5.22;;;1.88;;
71104;SDS011;58760;48.716;8.962;2022-08-21T02:45:33;7.57;;;2.17;;
71104;SDS011;58760;48.716;8.962;2022-08-21T02:48:01;6.25;;;2.28;;
71104;SDS011;58760;48.716;8.962;2022-08-21T02:50:30;5.78;;;2.10;;
71104;SDS011;58760;48.716;8.962;2022-08-21T02:53:00;4.60;;;1.80;;
71104;SDS011;58760;48.716;8.962;2022-08-21T02:55:27;5.45;;;2.10;;
71104;SDS011;58760;48.716;8.962;2022-08-21T02:57:55;5.93;;;1.67;;
71104;SDS011;58760;48.716;8.962;2022-08-21T03:00:22;5.90;;;1.90;;
71104;SDS011;58760;48.716;8.962;2022-08-21T03:02:49;5.22;;;1.80;;
71104;SDS011;58760;48.716;8.962;2022-08-21T03:05:15;5.35;;;2.05;;
71104;SDS011;58760;48.716;8.962;2022-08-21T03:07:42;4.13;;;1.75;;
71104;SDS011;58760;48.716;8.962;2022-08-21T03:10:09;5.63;;;2.08;;
71104;SDS011;58760;48.716;8.962;2022-08-21T03:12:35;5.57;;;2.00;;
71104;SDS011;58760;48.716;8.962;2022-08-21T03:15:03;4.28;;;1.88;;
71104;SDS011;58760;48.716;8.962;2022-08-21T03:17:31;6.15;;;2.20;;
71104;SDS011;58760;48.716;8.962;2022-08-21T03:19:57;6.10;;;2.05;;
71104;SDS011;58760;48.716;8.962;2022-08-21T03:22:23;4.20;;;2.05;;
71104;SDS011;58760;48.716;8.962;2022-08-21T03:24:48;5.50;;;2.15;;
71104;SDS011;58760;48.716;8.962;2022-08-21T03:27:14;6.43;;;2.10;;
71104;SDS011;58760;48.716;8.962;2022-08-21T03:29:39;8.50;;;2.40;;
71104;SDS011;58760;48.716;8.962;2022-08-21T03:32:05;4.70;;;1.90;;
71104;SDS011;58760;48.716;8.962;2022-08-21T03:34:34;6.18;;;2.28;;
71104;SDS011;58760;48.716;8.962;2022-08-21T03:39:25;7.43;;;1.92;;
71104;SDS011;58760;48.716;8.962;2022-08-21T03:41:51;6.28;;;2.40;;
71104;SDS011;58760;48.716;8.962;2022-08-21T03:44:17;6.68;;;2.30;;
71104;SDS011;58760;48.716;8.962;2022-08-21T03:46:42;4.65;;;2.20;;
71104;SDS011;58760;48.716;8.962;2022-08-21T03:49:08;5.53;;;2.58;;
71104;SDS011;58760;48.716;8.962;2022-08-21T03:51:33;6.03;;;2.08;;
71104;SDS011;58760;48.716;8.962;2022-08-21T03:54:00;9.07;;;2.30;;
71104;SDS011;58760;48.716;8.962;2022-08-21T03:56:26;7.10;;;2.50;;
71104;SDS011;58760;48.716;8.962;2022-08-21T03:58:51;7.10;;;2.50;;
71104;SDS011;58760;48.716;8.962;2022-08-21T04:01:17;5.45;;;2.35;;
71104;SDS011;58760;48.716;8.962;2022-08-21T04:03:42;4.75;;;2.30;;
71104;SDS011;58760;48.716;8.962;2022-08-21T04:06:07;6.10;;;2.20;;
71104;SDS011;58760;48.716;8.962;2022-08-21T04:08:33;5.95;;;2.58;;
71104;SDS011;58760;48.716;8.962;2022-08-21T04:11:00;6.35;;;2.40;;
71104;SDS011;58760;48.716;8.962;2022-08-21T04:13:26;5.72;;;2.22;;
71104;SDS011;58760;48.716;8.962;2022-08-21T04:15:53;8.15;;;2.38;;
71104;SDS011;58760;48.716;8.962;2022-08-21T04:18:19;5.22;;;2.10;;
71104;SDS011;58760;48.716;8.962;2022-08-21T04:20:46;5.22;;;1.98;;
71104;SDS011;58760;48.716;8.962;2022-08-21T04:23:14;5.90;;;2.85;;
71104;SDS011;58760;48.716;8.962;2022-08-21T04:25:40;6.35;;;2.03;;
71104;SDS011;58760;48.716;8.962;2022-08-21T04:28:05;5.07;;;2.20;;
71104;SDS011;58760;48.716;8.962;2022-08-21T04:30:30;7.07;;;2.30;;
71104;SDS011;58760;48.716;8.962;2022-08-21T04:32:57;6.10;;;2.20;;
71104;SDS011;58760;48.716;8.962;2022-08-21T04:35:23;4.75;;;2.10;;
71104;SDS011;58760;48.716;8.962;2022-08-21T04:37:49;6.60;;;2.40;;
71104;SDS011;58760;48.716;8.962;2022-08-21T04:40:15;6.60;;;2.78;;
71104;SDS011;58760;48.716;8.962;2022-08-21T04:45:20;5.05;;;2.17;;
71104;SDS011;58760;48.716;8.962;2022-08-21T04:48:13;4.40;;;2.03;;
71104;SDS011;58760;48.716;8.962;2022-08-21T04:53:20;6.30;;;2.30;;
71104;SDS011;58760;48.716;8.962;2022-08-21T04:56:00;5.45;;;2.50;;
71104;SDS011;58760;48.716;8.962;2022-08-21T04:58:30;4.72;;;2.25;;
71104;SDS011;58760;48.716;8.962;2022-08-21T05:00:58;7.47;;;2.03;;
71104;SDS011;58760;48.716;8.962;2022-08-21T05:03:26;5.40;;;2.28;;
71104;SDS011;58760;48.716;8.962;2022-08-21T05:05:52;5.97;;;2.47;;
71104;SDS011;58760;48.716;8.962;2022-08-21T05:08:19;6.97;;;2.47;;
71104;SDS011;58760;48.716;8.962;2022-08-21T05:10:48;6.55;;;2.08;;
71104;SDS011;58760;48.716;8.962;2022-08-21T05:13:14;4.90;;;2.30;;
71104;SDS011;58760;48.716;8.962;2022-08-21T05:15:40;6.47;;;2.20;;
71104;SDS011;58760;48.716;8.962;2022-08-21T05:18:06;6.43;;;2.63;;
71104;SDS011;58760;48.716;8.962;2022-08-21T05:20:32;5.07;;;2.22;;
71104;SDS011;58760;48.716;8.962;2022-08-21T05:23:01;6.05;;;2.20;;
71104;SDS011;58760;48.716;8.962;2022-08-21T05:25:36;6.78;;;2.72;;
71104;SDS011;58760;48.716;8.962;2022-08-21T05:28:02;5.57;;;2.38;;
71104;SDS011;58760;48.716;8.962;2022-08-21T05:30:28;6.32;;;2.70;;
71104;SDS011;58760;48.716;8.962;2022-08-21T05:32:59;5.60;;;2.47;;
71104;SDS011;58760;48.716;8.962;2022-08-21T05:35:26;5.95;;;2.50;;
71104;SDS011;58760;48.716;8.962;2022-08-21T05:37:53;5.50;;;2.60;;
71104;SDS011;58760;48.716;8.962;2022-08-21T05:40:18;5.07;;;2.60;;
71104;SDS011;58760;48.716;8.962;2022-08-21T05:42:44;7.68;;;2.70;;
71104;SDS011;58760;48.716;8.962;2022-08-21T05:45:10;9.52;;;2.97;;
71104;SDS011;58760;48.716;8.962;2022-08-21T05:47:35;4.82;;;2.53;;
71104;SDS011;58760;48.716;8.962;2022-08-21T05:50:01;6.72;;;2.67;;
71104;SDS011;58760;48.716;8.962;2022-08-21T05:52:27;5.15;;;2.63;;
71104;SDS011;58760;48.716;8.962;2022-08-21T05:54:53;6.20;;;2.95;;
71104;SDS011;58760;48.716;8.962;2022-08-21T05:57:19;9.07;;;2.83;;
71104;SDS011;58760;48.716;8.962;2022-08-21T05:59:45;6.05;;;2.90;;
71104;SDS011;58760;48.716;8.962;2022-08-21T06:02:10;5.05;;;2.45;;
71104;SDS011;58760;48.716;8.962;2022-08-21T06:04:36;5.95;;;2.78;;
71104;SDS011;58760;48.716;8.962;2022-08-21T06:07:03;7.35;;;2.72;;
71104;SDS011;58760;48.716;8.962;2022-08-21T06:09:29;6.78;;;2.58;;
71104;SDS011;58760;48.716;8.962;2022-08-21T06:11:54;8.40;;;3.03;;
71104;SDS011;58760;48.716;8.962;2022-08-21T06:14:19;7.18;;;2.78;;
71104;SDS011;58760;48.716;8.962;2022-08-21T06:16:45;5.88;;;2.45;;
71104;SDS011;58760;48.716;8.962;2022-08-21T06:19:10;7.38;;;2.40;;
71104;SDS011;58760;48.716;8.962;2022-08-21T06:21:36;5.55;;;2.30;;
71104;SDS011;58760;48.716;8.962;2022-08-21T06:24:02;5.10;;;2.25;;
71104;SDS011;58760;48.716;8.962;2022-08-21T06:26:27;5.47;;;2.28;;
71104;SDS011;58760;48.716;8.962;2022-08-21T06:28:54;7.22;;;2.40;;
71104;SDS011;58760;48.716;8.962;2022-08-21T06:31:24;5.00;;;2.35;;
71104;SDS011;58760;48.716;8.962;2022-08-21T06:33:51;7.93;;;2.63;;
71104;SDS011;58760;48.716;8.962;2022-08-21T06:36:17;7.55;;;2.90;;
71104;SDS011;58760;48.716;8.962;2022-08-21T06:38:44;9.07;;;3.17;;
71104;SDS011;58760;48.716;8.962;2022-08-21T06:41:10;6.93;;;2.63;;
71104;SDS011;58760;48.716;8.962;2022-08-21T06:43:35;6.50;;;2.67;;
71104;SDS011;58760;48.716;8.962;2022-08-21T06:46:01;6.22;;;2.40;;
71104;SDS011;58760;48.716;8.962;2022-08-21T06:48:26;5.95;;;2.67;;
71104;SDS011;58760;48.716;8.962;2022-08-21T06:50:52;7.03;;;2.67;;
71104;SDS011;58760;48.716;8.962;2022-08-21T06:53:18;6.72;;;2.70;;
71104;SDS011;58760;48.716;8.962;2022-08-21T06:55:45;5.63;;;2.28;;
71104;SDS011;58760;48.716;8.962;2022-08-21T06:58:12;5.40;;;2.40;;
71104;SDS011;58760;48.716;8.962;2022-08-21T07:00:38;5.95;;;2.45;;
71104;SDS011;58760;48.716;8.962;2022-08-21T07:03:05;5.38;;;2.60;;
71104;SDS011;58760;48.716;8.962;2022-08-21T07:05:31;7.95;;;2.40;;
71104;SDS011;58760;48.716;8.962;2022-08-21T07:07:56;4.82;;;2.20;;
71104;SDS011;58760;48.716;8.962;2022-08-21T07:10:23;7.47;;;2.63;;
71104;SDS011;58760;48.716;8.962;2022-08-21T07:12:51;6.68;;;2.63;;
71104;SDS011;58760;48.716;8.962;2022-08-21T07:15:18;10.35;;;3.13;;
71104;SDS011;58760;48.716;8.962;2022-08-21T07:17:44;6.72;;;2.42;;
71104;SDS011;58760;48.716;8.962;2022-08-21T07:20:09;6.63;;;2.40;;
71104;SDS011;58760;48.716;8.962;2022-08-21T07:22:35;5.47;;;2.50;;
71104;SDS011;58760;48.716;8.962;2022-08-21T07:25:02;7.45;;;2.38;;
71104;SDS011;58760;48.716;8.962;2022-08-21T07:27:28;8.23;;;2.75;;
71104;SDS011;58760;48.716;8.962;2022-08-21T07:29:54;6.10;;;2.65;;
71104;SDS011;58760;48.716;8.962;2022-08-21T07:32:19;8.38;;;2.80;;
71104;SDS011;58760;48.716;8.962;2022-08-21T07:34:44;8.50;;;2.78;;
71104;SDS011;58760;48.716;8.962;2022-08-21T07:37:10;7.05;;;3.08;;
71104;SDS011;58760;48.716;8.962;2022-08-21T07:39:35;9.65;;;2.90;;
71104;SDS011;58760;48.716;8.962;2022-08-21T07:42:01;6.55;;;2.40;;
71104;SDS011;58760;48.716;8.962;2022-08-21T07:44:28;7.15;;;2.83;;
71104;SDS011;58760;48.716;8.962;2022-08-21T07:46:53;7.15;;;3.25;;
71104;SDS011;58760;48.716;8.962;2022-08-21T07:49:18;8.10;;;3.13;;
71104;SDS011;58760;48.716;8.962;2022-08-21T07:51:44;7.85;;;3.15;;
71104;SDS011;58760;48.716;8.962;2022-08-21T07:54:09;6.90;;;2.63;;
71104;SDS011;58760;48.716;8.962;2022-08-21T07:56:35;9.55;;;3.30;;
71104;SDS011;58760;48.716;8.962;2022-08-21T07:59:00;9.05;;;2.85;;
71104;SDS011;58760;48.716;8.962;2022-08-21T08:01:28;7.97;;;2.88;;
71104;SDS011;58760;48.716;8.962;2022-08-21T08:03:54;7.75;;;2.90;;
71104;SDS011;58760;48.716;8.962;2022-08-21T08:06:19;10.38;;;3.72;;
71104;SDS011;58760;48.716;8.962;2022-08-21T08:08:45;10.02;;;3.05;;
71104;SDS011;58760;48.716;8.962;2022-08-21T08:11:11;6.43;;;2.45;;
71104;SDS011;58760;48.716;8.962;2022-08-21T08:13:47;7.55;;;2.92;;
71104;SDS011;58760;48.716;8.962;2022-08-21T08:16:13;8.73;;;2.83;;
71104;SDS011;58760;48.716;8.962;2022-08-21T08:18:39;8.32;;;2.65;;
71104;SDS011;58760;48.716;8.962;2022-08-21T08:21:06;9.88;;;2.95;;
71104;SDS011;58760;48.716;8.962;2022-08-21T08:23:32;6.13;;;2.30;;
71104;SDS011;58760;48.716;8.962;2022-08-21T08:25:58;10.25;;;2.60;;
71104;SDS011;58760;48.716;8.962;2022-08-21T08:28:24;7.20;;;2.50;;
71104;SDS011;58760;48.716;8.962;2022-08-21T08:30:50;6.22;;;2.50;;
71104;SDS011;58760;48.716;8.962;2022-08-21T08:33:15;12.05;;;3.10;;
71104;SDS011;58760;48.716;8.962;2022-08-21T08:35:42;8.32;;;2.92;;
71104;SDS011;58760;48.716;8.962;2022-08-21T08:38:10;7.18;;;2.70;;
71104;SDS011;58760;48.716;8.962;2022-08-21T08:43:44;7.95;;;2.60;;
71104;SDS011;58760;48.716;8.962;2022-08-21T08:46:18;10.32;;;2.65;;
71104;SDS011;58760;48.716;8.962;2022-08-21T08:48:54;7.75;;;2.40;;
71104;SDS011;58760;48.716;8.962;2022-08-21T08:51:26;10.23;;;3.15;;
71104;SDS011;58760;48.716;8.962;2022-08-21T08:54:03;7.63;;;3.05;;
71104;SDS011;58760;48.716;8.962;2022-08-21T08:56:33;7.50;;;2.63;;
71104;SDS011;58760;48.716;8.962;2022-08-21T08:59:02;8.40;;;2.80;;
71104;SDS011;58760;48.716;8.962;2022-08-21T09:01:33;9.02;;;2.80;;
71104;SDS011;58760;48.716;8.962;2022-08-21T09:03:59;8.93;;;3.03;;
71104;SDS011;58760;48.716;8.962;2022-08-21T09:06:28;8.05;;;2.70;;
71104;SDS011;58760;48.716;8.962;2022-08-21T09:09:10;9.32;;;2.95;;
71104;SDS011;58760;48.716;8.962;2022-08-21T09:12:04;7.78;;;2.85;;
71104;SDS011;58760;48.716;8.962;2022-08-21T09:15:18;9.32;;;2.70;;
71104;SDS011;58760;48.716;8.962;2022-08-21T09:20:55;9.77;;;2.97;;
71104;SDS011;58760;48.716;8.962;2022-08-21T09:26:17;6.82;;;2.50;;
71104;SDS011;58760;48.716;8.962;2022-08-21T09:28:44;9.52;;;2.50;;
71104;SDS011;58760;48.716;8.962;2022-08-21T09:31:23;6.90;;;2.50;;
71104;SDS011;58760;48.716;8.962;2022-08-21T09:33:56;9.52;;;3.22;;
71104;SDS011;58760;48.716;8.962;2022-08-21T09:36:24;8.57;;;2.50;;
71104;SDS011;58760;48.716;8.962;2022-08-21T09:38:54;8.40;;;2.75;;
71104;SDS011;58760;48.716;8.962;2022-08-21T09:41:31;8.07;;;2.33;;
71104;SDS011;58760;48.716;8.962;2022-08-21T09:43:59;6.90;;;2.35;;
71104;SDS011;58760;48.716;8.962;2022-08-21T09:46:25;7.70;;;2.50;;
71104;SDS011;58760;48.716;8.962;2022-08-21T09:48:54;8.43;;;2.28;;
71104;SDS011;58760;48.716;8.962;2022-08-21T09:56:33;8.70;;;2.90;;
71104;SDS011;58760;48.716;8.962;2022-08-21T09:59:20;10.82;;;2.40;;
71104;SDS011;58760;48.716;8.962;2022-08-21T10:01:51;7.68;;;2.25;;
71104;SDS011;58760;48.716;8.962;2022-08-21T10:04:22;9.82;;;2.30;;
71104;SDS011;58760;48.716;8.962;2022-08-21T10:06:52;6.80;;;2.45;;
71104;SDS011;58760;48.716;8.962;2022-08-21T10:11:49;9.38;;;2.45;;
71104;SDS011;58760;48.716;8.962;2022-08-21T10:14:27;7.93;;;2.20;;
71104;SDS011;58760;48.716;8.962;2022-08-21T10:20:04;5.13;;;2.03;;
71104;SDS011;58760;48.716;8.962;2022-08-21T10:22:34;6.82;;;2.17;;
71104;SDS011;58760;48.716;8.962;2022-08-21T10:30:28;7.47;;;2.25;;
71104;SDS011;58760;48.716;8.962;2022-08-21T10:35:44;10.18;;;2.45;;
71104;SDS011;58760;48.716;8.962;2022-08-21T10:41:22;6.90;;;2.45;;
71104;SDS011;58760;48.716;8.962;2022-08-21T10:47:24;6.55;;;2.50;;
71104;SDS011;58760;48.716;8.962;2022-08-21T10:49:38;9.38;;;2.85;;
71104;SDS011;58760;48.716;8.962;2022-08-21T10:57:46;9.38;;;2.33;;
71104;SDS011;58760;48.716;8.962;2022-08-21T11:00:17;5.57;;;2.22;;
71104;SDS011;58760;48.716;8.962;2022-08-21T11:05:29;8.43;;;2.65;;
71104;SDS011;58760;48.716;8.962;2022-08-21T11:08:01;8.55;;;2.63;;
71104;SDS011;58760;48.716;8.962;2022-08-21T11:10:42;7.40;;;2.63;;
71104;SDS011;58760;48.716;8.962;2022-08-21T11:13:12;9.48;;;2.80;;
71104;SDS011;58760;48.716;8.962;2022-08-21T11:18:19;6.53;;;2.15;;
71104;SDS011;58760;48.716;8.962;2022-08-21T11:23:21;6.03;;;2.35;;
71104;SDS011;58760;48.716;8.962;2022-08-21T11:26:01;5.97;;;2.45;;
71104;SDS011;58760;48.716;8.962;2022-08-21T11:28:34;4.65;;;2.33;;
71104;SDS011;58760;48.716;8.962;2022-08-21T11:36:15;7.90;;;2.28;;
71104;SDS011;58760;48.716;8.962;2022-08-21T11:39:17;7.55;;;2.50;;
71104;SDS011;58760;48.716;8.962;2022-08-21T11:42:18;6.95;;;2.10;;
71104;SDS011;58760;48.716;8.962;2022-08-21T11:47:48;7.30;;;2.00;;
71104;SDS011;58760;48.716;8.962;2022-08-21T11:50:20;5.78;;;2.22;;
71104;SDS011;58760;48.716;8.962;2022-08-21T11:52:53;7.03;;;2.58;;
71104;SDS011;58760;48.716;8.962;2022-08-21T11:55:32;8.23;;;2.55;;
71104;SDS011;58760;48.716;8.962;2022-08-21T11:58:05;7.55;;;2.55;;
71104;SDS011;58760;48.716;8.962;2022-08-21T12:00:36;5.85;;;2.00;;
71104;SDS011;58760;48.716;8.962;2022-08-21T12:03:08;7.53;;;2.17;;
71104;SDS011;58760;48.716;8.962;2022-08-21T12:05:51;8.25;;;2.60;;
71104;SDS011;58760;48.716;8.962;2022-08-21T12:08:33;8.35;;;2.47;;
71104;SDS011;58760;48.716;8.962;2022-08-21T12:11:02;6.82;;;2.33;;
71104;SDS011;58760;48.716;8.962;2022-08-21T12:14:19;6.82;;;2.20;;
71104;SDS011;58760;48.716;8.962;2022-08-21T12:16:43;10.13;;;2.30;;
71104;SDS011;58760;48.716;8.962;2022-08-21T12:19:11;5.10;;;1.75;;
71104;SDS011;58760;48.716;8.962;2022-08-21T12:21:59;6.88;;;2.17;;
71104;SDS011;58760;48.716;8.962;2022-08-21T12:24:38;7.15;;;2.38;;
71104;SDS011;58760;48.716;8.962;2022-08-21T12:29:38;4.75;;;1.80;;
71104;SDS011;58760;48.716;8.962;2022-08-21T12:39:44;5.18;;;1.98;;
71104;SDS011;58760;48.716;8.962;2022-08-21T12:45:20;6.05;;;2.10;;
71104;SDS011;58760;48.716;8.962;2022-08-21T12:53:05;5.40;;;2.28;;
71104;SDS011;58760;48.716;8.962;2022-08-21T12:55:41;7.93;;;2.08;;
71104;SDS011;58760;48.716;8.962;2022-08-21T12:58:16;5.57;;;2.42;;
71104;SDS011;58760;48.716;8.962;2022-08-21T13:00:47;6.47;;;2.20;;
71104;SDS011;58760;48.716;8.962;2022-08-21T13:03:15;8.18;;;2.20;;
71104;SDS011;58760;48.716;8.962;2022-08-21T13:05:41;6.22;;;2.20;;
71104;SDS011;58760;48.716;8.962;2022-08-21T13:08:09;5.32;;;2.20;;
71104;SDS011;58760;48.716;8.962;2022-08-21T13:10:37;6.18;;;2.28;;
71104;SDS011;58760;48.716;8.962;2022-08-21T13:13:06;4.82;;;1.92;;
71104;SDS011;58760;48.716;8.962;2022-08-21T13:15:48;6.57;;;2.25;;
71104;SDS011;58760;48.716;8.962;2022-08-21T13:18:26;6.90;;;2.25;;
71104;SDS011;58760;48.716;8.962;2022-08-21T13:21:02;5.63;;;2.20;;
71104;SDS011;58760;48.716;8.962;2022-08-21T13:26:14;4.78;;;2.03;;
71104;SDS011;58760;48.716;8.962;2022-08-21T13:28:41;8.48;;;2.50;;
71104;SDS011;58760;48.716;8.962;2022-08-21T13:31:09;4.38;;;1.90;;
71104;SDS011;58760;48.716;8.962;2022-08-21T13:33:35;5.88;;;2.42;;
71104;SDS011;58760;48.716;8.962;2022-08-21T13:36:10;6.63;;;2.47;;
71104;SDS011;58760;48.716;8.962;2022-08-21T13:38:41;6.68;;;2.15;;
71104;SDS011;58760;48.716;8.962;2022-08-21T13:41:12;7.32;;;2.50;;
71104;SDS011;58760;48.716;8.962;2022-08-21T13:43:43;8.15;;;2.60;;
71104;SDS011;58760;48.716;8.962;2022-08-21T13:46:11;7.35;;;2.38;;
71104;SDS011;58760;48.716;8.962;2022-08-21T13:48:39;6.65;;;2.22;;
71104;SDS011;58760;48.716;8.962;2022-08-21T13:51:06;6.95;;;2.20;;
71104;SDS011;58760;48.716;8.962;2022-08-21T13:56:06;6.65;;;2.40;;
71104;SDS011;58760;48.716;8.962;2022-08-21T13:58:45;6.75;;;2.17;;
71104;SDS011;58760;48.716;8.962;2022-08-21T14:01:19;4.88;;;2.10;;
71104;SDS011;58760;48.716;8.962;2022-08-21T14:03:47;8.77;;;2.70;;
71104;SDS011;58760;48.716;8.962;2022-08-21T14:06:20;7.15;;;2.55;;
71104;SDS011;58760;48.716;8.962;2022-08-21T14:09:30;7.40;;;2.78;;
71104;SDS011;58760;48.716;8.962;2022-08-21T14:11:37;11.68;;;2.70;;
71104;SDS011;58760;48.716;8.962;2022-08-21T14:14:28;7.75;;;2.60;;
71104;SDS011;58760;48.716;8.962;2022-08-21T14:16:59;6.03;;;2.30;;
71104;SDS011;58760;48.716;8.962;2022-08-21T14:19:43;5.65;;;2.35;;
71104;SDS011;58760;48.716;8.962;2022-08-21T14:27:40;7.60;;;2.60;;
71104;SDS011;58760;48.716;8.962;2022-08-21T14:32:46;10.07;;;2.58;;
71104;SDS011;58760;48.716;8.962;2022-08-21T14:35:13;7.78;;;2.58;;
71104;SDS011;58760;48.716;8.962;2022-08-21T14:37:42;10.10;;;2.70;;
71104;SDS011;58760;48.716;8.962;2022-08-21T14:40:09;5.85;;;2.47;;
71104;SDS011;58760;48.716;8.962;2022-08-21T14:42:36;6.43;;;2.42;;
71104;SDS011;58760;48.716;8.962;2022-08-21T14:45:05;9.65;;;2.40;;
71104;SDS011;58760;48.716;8.962;2022-08-21T14:47:38;7.38;;;2.28;;
71104;SDS011;58760;48.716;8.962;2022-08-21T14:50:03;5.70;;;2.20;;
71104;SDS011;58760;48.716;8.962;2022-08-21T14:52:29;6.13;;;2.22;;
71104;SDS011;58760;48.716;8.962;2022-08-21T14:54:55;5.68;;;2.20;;
71104;SDS011;58760;48.716;8.962;2022-08-21T14:57:20;7.40;;;2.60;;
71104;SDS011;58760;48.716;8.962;2022-08-21T14:59:46;5.18;;;1.98;;
71104;SDS011;58760;48.716;8.962;2022-08-21T15:02:12;5.25;;;2.08;;
71104;SDS011;58760;48.716;8.962;2022-08-21T15:04:37;5.95;;;2.58;;
71104;SDS011;58760;48.716;8.962;2022-08-21T15:07:03;8.65;;;2.45;;
71104;SDS011;58760;48.716;8.962;2022-08-21T15:09:29;5.53;;;2.10;;
71104;SDS011;58760;48.716;8.962;2022-08-21T15:11:56;6.05;;;2.15;;
71104;SDS011;58760;48.716;8.962;2022-08-21T15:14:24;7.30;;;2.30;;
71104;SDS011;58760;48.716;8.962;2022-08-21T15:16:51;6.30;;;2.00;;
71104;SDS011;58760;48.716;8.962;2022-08-21T15:19:17;6.90;;;2.40;;
71104;SDS011;58760;48.716;8.962;2022-08-21T15:21:43;6.78;;;2.40;;
71104;SDS011;58760;48.716;8.962;2022-08-21T15:24:08;5.90;;;2.38;;
71104;SDS011;58760;48.716;8.962;2022-08-21T15:26:34;4.72;;;2.08;;
71104;SDS011;58760;48.716;8.962;2022-08-21T15:29:00;6.20;;;2.33;;
71104;SDS011;58760;48.716;8.962;2022-08-21T15:31:26;6.88;;;2.20;;
71104;SDS011;58760;48.716;8.962;2022-08-21T15:33:52;5.53;;;2.38;;
71104;SDS011;58760;48.716;8.962;2022-08-21T15:36:18;4.53;;;2.00;;
71104;SDS011;58760;48.716;8.962;2022-08-21T15:38:44;6.32;;;2.35;;
71104;SDS011;58760;48.716;8.962;2022-08-21T15:41:10;6.88;;;2.15;;
71104;SDS011;58760;48.716;8.962;2022-08-21T15:43:46;5.53;;;2.05;;
71104;SDS011;58760;48.716;8.962;2022-08-21T15:46:14;7.10;;;2.35;;
71104;SDS011;58760;48.716;8.962;2022-08-21T15:48:42;8.05;;;2.10;;
71104;SDS011;58760;48.716;8.962;2022-08-21T15:51:09;6.20;;;2.10;;
71104;SDS011;58760;48.716;8.962;2022-08-21T15:53:35;5.55;;;2.20;;
71104;SDS011;58760;48.716;8.962;2022-08-21T15:56:04;7.13;;;2.55;;
71104;SDS011;58760;48.716;8.962;2022-08-21T15:58:30;7.60;;;2.30;;
71104;SDS011;58760;48.716;8.962;2022-08-21T16:00:58;7.68;;;2.70;;
71104;SDS011;58760;48.716;8.962;2022-08-21T16:03:24;5.95;;;2.50;;
71104;SDS011;58760;48.716;8.962;2022-08-21T16:05:51;6.95;;;2.30;;
71104;SDS011;58760;48.716;8.962;2022-08-21T16:08:17;8.23;;;2.45;;
71104;SDS011;58760;48.716;8.962;2022-08-21T16:10:43;7.20;;;2.70;;
71104;SDS011;58760;48.716;8.962;2022-08-21T16:13:20;6.43;;;2.60;;
71104;SDS011;58760;48.716;8.962;2022-08-21T16:15:54;14.02;;;6.78;;
71104;SDS011;58760;48.716;8.962;2022-08-21T16:18:19;9.45;;;5.13;;
71104;SDS011;58760;48.716;8.962;2022-08-21T16:20:47;11.52;;;2.50;;
71104;SDS011;58760;48.716;8.962;2022-08-21T16:23:13;6.15;;;2.63;;
71104;SDS011;58760;48.716;8.962;2022-08-21T16:25:39;10.00;;;4.88;;
71104;SDS011;58760;48.716;8.962;2022-08-21T16:28:06;8.20;;;3.50;;
71104;SDS011;58760;48.716;8.962;2022-08-21T16:30:33;8.23;;;3.10;;
71104;SDS011;58760;48.716;8.962;2022-08-21T16:32:59;8.38;;;2.72;;
71104;SDS011;58760;48.716;8.962;2022-08-21T16:35:27;8.50;;;3.80;;
71104;SDS011;58760;48.716;8.962;2022-08-21T16:37:53;8.77;;;3.10;;